createdAt,value
2017-09-04T00:00:31.642Z,23.83
2017-09-04T00:01:40.943Z,23.85
2017-09-04T00:02:49.625Z,23.83
2017-09-04T00:03:58.596Z,23.79
2017-09-04T00:05:07.563Z,23.9
2017-09-04T00:06:16.256Z,23.84
2017-09-04T00:07:25.190Z,23.78
2017-09-04T00:08:34.150Z,23.8
2017-09-04T00:09:42.822Z,23.8
2017-09-04T00:10:51.756Z,23.73
2017-09-04T00:12:01.033Z,23.8
2017-09-04T00:13:10.320Z,23.73
2017-09-04T00:14:18.973Z,23.73
2017-09-04T00:15:27.958Z,23.85
2017-09-04T00:16:36.927Z,23.83
2017-09-04T00:17:45.574Z,23.84
2017-09-04T00:18:54.536Z,23.83
2017-09-04T00:20:03.187Z,23.8
2017-09-04T00:21:12.466Z,23.75
2017-09-04T00:22:21.439Z,23.84
2017-09-04T00:23:30.418Z,23.72
2017-09-04T00:24:39.391Z,23.73
2017-09-04T00:25:48.388Z,23.9
2017-09-04T00:26:57.046Z,23.79
2017-09-04T00:28:05.694Z,23.78
2017-09-04T00:29:14.676Z,23.8
2017-09-04T00:30:23.339Z,23.8
2017-09-04T00:31:32.623Z,23.85
2017-09-04T00:32:41.926Z,23.83
2017-09-04T00:33:51.213Z,23.75
2017-09-04T00:35:00.502Z,23.79
2017-09-04T00:36:09.185Z,23.8
2017-09-04T00:37:18.800Z,23.75
2017-09-04T00:38:28.093Z,23.72
2017-09-04T00:39:37.410Z,23.72
2017-09-04T00:40:47.017Z,23.8
2017-09-04T00:41:56.315Z,23.73
2017-09-04T00:43:05.938Z,23.72
2017-09-04T00:44:15.238Z,23.78
2017-09-04T00:45:24.306Z,23.73
2017-09-04T00:46:33.301Z,23.75
2017-09-04T00:47:42.600Z,23.68
2017-09-04T00:48:51.881Z,23.75
2017-09-04T00:50:00.860Z,23.69
2017-09-04T00:51:09.514Z,23.78
2017-09-04T00:52:18.795Z,23.85
2017-09-04T00:53:28.087Z,23.69
2017-09-04T00:54:37.364Z,23.75
2017-09-04T00:55:46.020Z,23.76
2017-09-04T00:56:55.016Z,23.84
2017-09-04T00:58:03.996Z,23.83
2017-09-04T00:59:13.305Z,23.9
2017-09-04T01:00:21.960Z,23.76
2017-09-04T01:01:30.936Z,23.76
2017-09-04T01:02:39.902Z,23.76
2017-09-04T01:03:48.876Z,23.85
2017-09-04T01:04:58.476Z,23.85
2017-09-04T01:06:07.447Z,23.8
2017-09-04T01:07:16.408Z,23.83
2017-09-04T01:08:26.050Z,23.9
2017-09-04T01:09:35.031Z,23.79
2017-09-04T01:10:43.728Z,23.7
2017-09-04T01:11:52.454Z,23.68
2017-09-04T01:13:02.369Z,23.75
2017-09-04T01:14:11.365Z,23.7
2017-09-04T01:15:20.022Z,23.75
2017-09-04T01:16:28.996Z,23.78
2017-09-04T01:17:38.691Z,23.8
2017-09-04T01:18:47.368Z,23.8
2017-09-04T01:19:56.331Z,23.66
2017-09-04T01:21:05.618Z,23.68
2017-09-04T01:22:14.596Z,23.8
2017-09-04T01:23:23.569Z,23.66
2017-09-04T01:24:32.885Z,23.66
2017-09-04T01:25:41.851Z,23.76
2017-09-04T01:26:50.826Z,23.75
2017-09-04T01:27:59.484Z,23.79
2017-09-04T01:29:08.452Z,23.7
2017-09-04T01:30:17.747Z,23.79
2017-09-04T01:31:26.716Z,23.72
2017-09-04T01:32:35.996Z,23.73
2017-09-04T01:33:45.673Z,23.72
2017-09-04T01:34:54.969Z,23.75
2017-09-04T01:36:03.621Z,23.75
2017-09-04T01:37:12.584Z,23.7
2017-09-04T01:38:21.873Z,23.8
2017-09-04T01:39:31.483Z,23.69
2017-09-04T01:40:40.145Z,23.76
2017-09-04T01:41:49.124Z,23.73
2017-09-04T01:42:57.806Z,23.73
2017-09-04T01:44:06.763Z,23.7
2017-09-04T01:45:16.044Z,23.68
2017-09-04T01:46:24.721Z,23.79
2017-09-04T01:47:34.014Z,23.76
2017-09-04T01:48:42.661Z,23.79
2017-09-04T01:49:51.933Z,23.65
2017-09-04T01:51:00.588Z,23.72
2017-09-04T01:52:09.868Z,23.68
2017-09-04T01:53:18.522Z,23.73
2017-09-04T01:54:27.489Z,23.7
2017-09-04T01:55:37.078Z,23.73
2017-09-04T01:56:46.044Z,23.69
2017-09-04T01:57:54.703Z,23.69
2017-09-04T01:59:03.670Z,23.76
2017-09-04T02:00:12.396Z,23.72
2017-09-04T02:01:21.375Z,23.73
2017-09-04T02:02:30.029Z,23.73
2017-09-04T02:03:39.634Z,23.7
2017-09-04T02:04:48.616Z,23.69
2017-09-04T02:05:57.588Z,23.76
2017-09-04T02:07:06.229Z,23.68
2017-09-04T02:08:14.872Z,23.76
2017-09-04T02:09:23.826Z,23.63
2017-09-04T02:10:33.092Z,23.76
2017-09-04T02:11:42.702Z,23.7
2017-09-04T02:12:51.357Z,23.66
2017-09-04T02:14:00.004Z,23.72
2017-09-04T02:15:09.298Z,23.76
2017-09-04T02:16:18.265Z,23.73
2017-09-04T02:17:27.553Z,23.73
2017-09-04T02:18:37.165Z,23.7
2017-09-04T02:19:46.126Z,23.73
2017-09-04T02:20:55.090Z,23.66
2017-09-04T02:22:03.747Z,23.65
2017-09-04T02:23:12.727Z,23.69
2017-09-04T02:24:21.711Z,23.65
2017-09-04T02:25:30.383Z,23.66
2017-09-04T02:26:39.668Z,23.65
2017-09-04T02:27:49.270Z,23.75
2017-09-04T02:28:58.560Z,23.69
2017-09-04T02:30:07.536Z,23.65
2017-09-04T02:31:17.139Z,23.68
2017-09-04T02:32:26.443Z,23.7
2017-09-04T02:33:35.416Z,23.72
2017-09-04T02:34:44.394Z,23.65
2017-09-04T02:35:53.701Z,23.63
2017-09-04T02:37:02.677Z,23.65
2017-09-04T02:38:11.653Z,23.68
2017-09-04T02:39:21.269Z,23.69
2017-09-04T02:40:30.242Z,23.65
2017-09-04T02:41:39.243Z,23.63
2017-09-04T02:42:48.519Z,23.65
2017-09-04T02:43:57.808Z,23.63
2017-09-04T02:45:06.793Z,23.68
2017-09-04T02:46:16.070Z,23.69
2017-09-04T02:47:25.357Z,23.68
2017-09-04T02:48:34.962Z,23.68
2017-09-04T02:49:43.938Z,23.63
2017-09-04T02:50:52.923Z,23.69
2017-09-04T02:52:01.890Z,23.66
2017-09-04T02:53:11.180Z,23.66
2017-09-04T02:54:20.469Z,23.68
2017-09-04T02:55:29.446Z,23.65
2017-09-04T02:56:38.420Z,23.61
2017-09-04T02:57:48.025Z,23.61
2017-09-04T02:58:57.024Z,23.6
2017-09-04T03:00:06.313Z,23.6
2017-09-04T03:01:15.610Z,23.63
2017-09-04T03:02:24.579Z,23.63
2017-09-04T03:03:33.229Z,23.61
2017-09-04T03:04:41.883Z,23.66
2017-09-04T03:05:50.853Z,23.65
2017-09-04T03:07:00.138Z,23.68
2017-09-04T03:08:09.428Z,23.66
2017-09-04T03:09:18.393Z,23.63
2017-09-04T03:10:27.672Z,23.65
2017-09-04T03:11:36.640Z,23.6
2017-09-04T03:12:45.294Z,23.63
2017-09-04T03:13:54.896Z,23.63
2017-09-04T03:15:03.554Z,23.69
2017-09-04T03:16:12.524Z,23.6
2017-09-04T03:17:22.130Z,23.68
2017-09-04T03:18:31.524Z,23.63
2017-09-04T03:19:40.813Z,23.68
2017-09-04T03:20:49.790Z,23.6
2017-09-04T03:21:58.772Z,23.55
2017-09-04T03:23:08.361Z,23.63
2017-09-04T03:24:17.008Z,23.6
2017-09-04T03:25:25.971Z,23.61
2017-09-04T03:26:34.637Z,23.57
2017-09-04T03:27:44.233Z,23.63
2017-09-04T03:28:53.218Z,23.65
2017-09-04T03:30:02.187Z,23.6
2017-09-04T03:31:11.503Z,23.61
2017-09-04T03:32:20.801Z,23.65
2017-09-04T03:33:30.080Z,23.65
2017-09-04T03:34:39.041Z,23.63
2017-09-04T03:35:48.340Z,23.57
2017-09-04T03:36:57.636Z,23.61
2017-09-04T03:38:06.603Z,23.61
2017-09-04T03:39:16.201Z,23.63
2017-09-04T03:40:25.172Z,23.66
2017-09-04T03:41:34.769Z,23.57
2017-09-04T03:42:43.740Z,23.61
2017-09-04T03:43:52.705Z,23.66
2017-09-04T03:45:01.668Z,23.6
2017-09-04T03:46:10.630Z,23.61
2017-09-04T03:47:19.914Z,23.61
2017-09-04T03:48:28.564Z,23.61
2017-09-04T03:49:37.851Z,23.6
2017-09-04T03:50:46.502Z,23.54
2017-09-04T03:51:55.467Z,23.58
2017-09-04T03:53:04.122Z,23.61
2017-09-04T03:54:13.109Z,23.61
2017-09-04T03:55:22.393Z,23.58
2017-09-04T03:56:31.673Z,23.66
2017-09-04T03:57:40.658Z,23.58
2017-09-04T03:58:49.314Z,23.63
2017-09-04T03:59:58.598Z,23.58
2017-09-04T04:01:07.873Z,23.58
2017-09-04T04:02:16.541Z,23.55
2017-09-04T04:03:25.570Z,23.65
2017-09-04T04:04:34.534Z,23.6
2017-09-04T04:05:43.198Z,23.6
2017-09-04T04:06:52.494Z,23.57
2017-09-04T04:08:01.154Z,23.61
2017-09-04T04:09:10.447Z,23.58
2017-09-04T04:10:19.427Z,23.55
2017-09-04T04:11:29.024Z,23.55
2017-09-04T04:12:38.008Z,23.57
2017-09-04T04:13:47.007Z,23.58
2017-09-04T04:14:56.602Z,23.55
2017-09-04T04:16:05.269Z,23.53
2017-09-04T04:17:14.861Z,23.54
2017-09-04T04:18:24.156Z,23.6
2017-09-04T04:19:33.436Z,23.63
2017-09-04T04:20:42.725Z,23.54
2017-09-04T04:21:51.702Z,23.58
2017-09-04T04:23:00.364Z,23.57
2017-09-04T04:24:09.655Z,23.53
2017-09-04T04:25:18.629Z,23.53
2017-09-04T04:26:27.929Z,23.57
2017-09-04T04:27:36.904Z,23.58
2017-09-04T04:28:45.586Z,23.58
2017-09-04T04:29:54.582Z,23.54
2017-09-04T04:31:03.611Z,23.53
2017-09-04T04:32:12.300Z,23.53
2017-09-04T04:33:21.286Z,23.55
2017-09-04T04:34:29.934Z,23.55
2017-09-04T04:35:38.906Z,23.6
2017-09-04T04:36:48.517Z,23.57
2017-09-04T04:37:57.501Z,23.58
2017-09-04T04:39:06.789Z,23.54
2017-09-04T04:40:15.762Z,23.55
2017-09-04T04:41:24.414Z,23.58
2017-09-04T04:42:33.060Z,23.51
2017-09-04T04:43:42.354Z,23.55
2017-09-04T04:44:51.359Z,23.57
2017-09-04T04:46:00.333Z,23.58
2017-09-04T04:47:09.636Z,23.55
2017-09-04T04:48:18.283Z,23.6
2017-09-04T04:49:27.604Z,23.58
2017-09-04T04:50:36.262Z,23.54
2017-09-04T04:51:44.943Z,23.51
2017-09-04T04:52:53.929Z,23.58
2017-09-04T04:54:03.226Z,23.55
2017-09-04T04:55:12.532Z,23.55
2017-09-04T04:56:21.978Z,23.6
2017-09-04T04:57:31.338Z,23.58
2017-09-04T04:58:40.631Z,23.55
2017-09-04T04:59:49.912Z,23.61
2017-09-04T05:00:59.212Z,23.58
2017-09-04T05:02:08.806Z,23.57
2017-09-04T05:03:18.096Z,23.54
2017-09-04T05:04:27.058Z,23.6
2017-09-04T05:05:36.693Z,23.58
2017-09-04T05:06:46.314Z,23.61
2017-09-04T05:07:55.291Z,23.54
2017-09-04T05:09:04.271Z,23.58
2017-09-04T05:10:14.207Z,23.65
2017-09-04T05:11:22.871Z,23.57
2017-09-04T05:12:31.843Z,23.66
2017-09-04T05:13:41.129Z,23.53
2017-09-04T05:14:50.136Z,23.63
2017-09-04T05:15:58.793Z,23.66
2017-09-04T05:17:07.796Z,23.65
2017-09-04T05:18:17.087Z,23.66
2017-09-04T05:19:26.095Z,23.65
2017-09-04T05:20:34.775Z,23.61
2017-09-04T05:21:43.755Z,23.63
2017-09-04T05:22:52.777Z,23.61
2017-09-04T05:24:01.769Z,23.66
2017-09-04T05:25:11.077Z,23.68
2017-09-04T05:26:20.375Z,23.6
2017-09-04T05:27:29.033Z,23.63
2017-09-04T05:28:38.005Z,23.7
2017-09-04T05:29:46.980Z,23.61
2017-09-04T05:30:56.262Z,23.7
2017-09-04T05:32:04.914Z,23.65
2017-09-04T05:33:14.209Z,23.75
2017-09-04T05:34:22.874Z,23.76
2017-09-04T05:35:31.853Z,23.79
2017-09-04T05:36:40.508Z,23.69
2017-09-04T05:37:49.555Z,23.78
2017-09-04T05:38:58.210Z,23.66
2017-09-04T05:40:07.496Z,23.72
2017-09-04T05:41:16.473Z,23.68
2017-09-04T05:42:25.757Z,23.78
2017-09-04T05:43:35.053Z,23.78
2017-09-04T05:44:44.330Z,23.85
2017-09-04T05:45:52.986Z,23.84
2017-09-04T05:47:01.965Z,23.9
2017-09-04T05:48:10.998Z,23.83
2017-09-04T05:49:20.585Z,23.88
2017-09-04T05:50:29.245Z,23.83
2017-09-04T05:51:38.542Z,23.9
2017-09-04T05:52:48.138Z,23.9
2017-09-04T05:53:56.805Z,24
2017-09-04T05:55:05.459Z,23.93
2017-09-04T05:56:14.457Z,23.91
2017-09-04T05:57:23.426Z,23.93
2017-09-04T05:58:32.082Z,23.94
2017-09-04T05:59:41.384Z,23.9
2017-09-04T06:00:50.670Z,23.85
2017-09-04T06:01:59.956Z,23.93
2017-09-04T06:03:09.588Z,23.9
2017-09-04T06:04:18.572Z,23.95
2017-09-04T06:05:27.545Z,23.97
2017-09-04T06:06:36.535Z,23.88
2017-09-04T06:07:45.814Z,23.93
2017-09-04T06:08:54.782Z,23.95
2017-09-04T06:10:04.075Z,23.98
2017-09-04T06:11:13.045Z,23.94
2017-09-04T06:12:22.327Z,23.97
2017-09-04T06:13:31.311Z,23.93
2017-09-04T06:14:40.299Z,23.93
2017-09-04T06:15:49.273Z,24.02
2017-09-04T06:16:58.237Z,24.08
2017-09-04T06:18:07.205Z,23.94
2017-09-04T06:19:15.885Z,24.02
2017-09-04T06:20:25.177Z,24
2017-09-04T06:21:34.473Z,24.05
2017-09-04T06:22:43.118Z,23.97
2017-09-04T06:23:52.090Z,24.06
2017-09-04T06:25:01.059Z,24.06
2017-09-04T06:26:10.046Z,24.06
2017-09-04T06:27:18.738Z,24.09
2017-09-04T06:28:27.764Z,24.1
2017-09-04T06:29:36.778Z,24.1
2017-09-04T06:30:45.776Z,24.06
2017-09-04T06:31:55.083Z,24.09
2017-09-04T06:33:04.075Z,24.06
2017-09-04T06:34:13.363Z,24.13
2017-09-04T06:35:22.678Z,24.13
2017-09-04T06:36:32.293Z,24.1
2017-09-04T06:37:41.261Z,24.12
2017-09-04T06:38:49.913Z,24.08
2017-09-04T06:39:58.592Z,24.13
2017-09-04T06:41:07.591Z,24.09
2017-09-04T06:42:16.249Z,24.22
2017-09-04T06:43:25.231Z,24.18
2017-09-04T06:44:34.533Z,24.12
2017-09-04T06:45:43.501Z,24.16
2017-09-04T06:46:52.813Z,24.24
2017-09-04T06:48:01.783Z,24.2
2017-09-04T06:49:10.747Z,24.22
2017-09-04T06:50:20.028Z,24.21
2017-09-04T06:51:29.312Z,24.21
2017-09-04T06:52:38.626Z,24.24
2017-09-04T06:53:47.937Z,24.21
2017-09-04T06:54:57.216Z,24.25
2017-09-04T06:56:06.175Z,24.15
2017-09-04T06:57:14.844Z,24.32
2017-09-04T06:58:24.130Z,24.25
2017-09-04T06:59:33.400Z,24.34
2017-09-04T07:00:42.385Z,24.31
2017-09-04T07:01:51.352Z,24.3
2017-09-04T07:03:00.323Z,24.35
2017-09-04T07:04:09.302Z,24.28
2017-09-04T07:05:17.964Z,24.3
2017-09-04T07:06:27.261Z,24.35
2017-09-04T07:07:36.868Z,24.28
2017-09-04T07:08:46.461Z,24.32
2017-09-04T07:09:55.748Z,24.25
2017-09-04T07:11:04.732Z,24.32
2017-09-04T07:12:13.698Z,24.31
2017-09-04T07:13:22.670Z,24.43
2017-09-04T07:14:31.948Z,24.32
2017-09-04T07:15:40.609Z,24.28
2017-09-04T07:16:49.573Z,24.4
2017-09-04T07:17:58.235Z,24.42
2017-09-04T07:19:07.221Z,24.46
2017-09-04T07:20:16.194Z,24.47
2017-09-04T07:21:24.840Z,24.46
2017-09-04T07:22:34.125Z,24.5
2017-09-04T07:23:43.108Z,24.58
2017-09-04T07:24:52.394Z,24.47
2017-09-04T07:26:01.683Z,24.49
2017-09-04T07:27:11.349Z,24.6
2017-09-04T07:28:20.342Z,24.6
2017-09-04T07:29:28.997Z,24.53
2017-09-04T07:30:37.666Z,24.57
2017-09-04T07:31:46.644Z,24.57
2017-09-04T07:32:55.619Z,24.6
2017-09-04T07:34:04.283Z,24.6
2017-09-04T07:35:12.938Z,24.53
2017-09-04T07:36:22.240Z,24.58
2017-09-04T07:37:31.524Z,24.57
2017-09-04T07:38:40.505Z,24.61
2017-09-04T07:39:50.529Z,24.58
2017-09-04T07:40:59.516Z,24.53
2017-09-04T07:42:08.808Z,24.57
2017-09-04T07:43:17.786Z,24.46
2017-09-04T07:44:26.454Z,24.49
2017-09-04T07:45:35.414Z,24.58
2017-09-04T07:46:44.074Z,24.46
2017-09-04T07:47:52.786Z,24.53
2017-09-04T07:49:01.770Z,24.52
2017-09-04T07:50:11.072Z,24.57
2017-09-04T07:51:20.358Z,24.57
2017-09-04T07:52:29.007Z,24.49
2017-09-04T07:53:38.285Z,24.52
2017-09-04T07:54:47.260Z,24.5
2017-09-04T07:55:56.550Z,24.5
2017-09-04T08:02:10.007Z,24.57
2017-09-04T08:03:19.325Z,24.53
2017-09-04T08:07:00.357Z,24.57
2017-09-04T08:08:09.641Z,24.64
2017-09-04T08:09:18.294Z,24.64
2017-09-04T08:10:27.881Z,24.6
2017-09-04T08:11:36.843Z,24.6
2017-09-04T08:12:45.809Z,24.67
2017-09-04T08:13:54.795Z,24.64
2017-09-04T08:15:03.461Z,24.69
2017-09-04T08:16:12.502Z,24.76
2017-09-04T08:17:21.497Z,24.76
2017-09-04T08:23:36.169Z,24.91
2017-09-04T08:29:52.583Z,24.99
2017-09-04T08:31:03.071Z,24.93
2017-09-04T08:37:16.464Z,25
2017-09-04T08:38:26.115Z,24.98
2017-09-04T08:39:34.783Z,24.96
2017-09-04T08:40:44.069Z,24.96
2017-09-04T08:41:52.748Z,24.95
2017-09-04T08:43:02.338Z,24.96
2017-09-04T08:46:44.286Z,24.96
2017-09-04T08:47:53.267Z,24.87
2017-09-04T08:49:02.564Z,24.91
2017-09-04T08:50:11.566Z,24.81
2017-09-04T08:51:21.500Z,24.78
2017-09-04T08:52:30.164Z,24.91
2017-09-04T08:53:38.826Z,24.81
2017-09-04T08:54:48.431Z,24.8
2017-09-04T08:55:58.038Z,24.81
2017-09-04T08:57:06.718Z,24.77
2017-09-04T08:58:16.024Z,24.83
2017-09-04T08:59:24.994Z,24.81
2017-09-04T09:00:34.271Z,24.81
2017-09-04T09:01:42.933Z,24.73
2017-09-04T09:02:51.637Z,24.77
2017-09-04T09:04:00.937Z,24.71
2017-09-04T09:05:09.918Z,24.68
2017-09-04T09:06:19.516Z,24.71
2017-09-04T09:07:29.440Z,24.68
2017-09-04T09:08:38.446Z,24.69
2017-09-04T09:09:47.102Z,24.62
2017-09-04T09:10:56.079Z,24.64
2017-09-04T09:12:04.741Z,24.61
2017-09-04T09:13:13.719Z,24.64
2017-09-04T09:14:23.010Z,24.62
2017-09-04T09:15:32.615Z,24.68
2017-09-04T09:16:42.223Z,24.65
2017-09-04T09:17:51.506Z,24.57
2017-09-04T09:19:00.797Z,24.64
2017-09-04T09:20:09.765Z,24.61
2017-09-04T09:21:18.425Z,24.61
2017-09-04T09:22:27.717Z,24.62
2017-09-04T09:23:36.435Z,24.58
2017-09-04T09:24:45.105Z,24.58
2017-09-04T09:25:54.081Z,24.57
2017-09-04T09:27:03.052Z,24.52
2017-09-04T09:28:12.670Z,24.52
2017-09-04T09:29:21.322Z,24.58
2017-09-04T09:30:29.985Z,24.57
2017-09-04T09:31:38.972Z,24.55
2017-09-04T09:32:47.955Z,24.55
2017-09-04T09:33:56.637Z,24.55
2017-09-04T09:35:06.233Z,24.55
2017-09-04T09:36:15.207Z,24.57
2017-09-04T09:37:24.830Z,24.57
2017-09-04T09:38:34.120Z,24.65
2017-09-04T09:39:44.066Z,24.62
2017-09-04T09:40:53.351Z,24.55
2017-09-04T09:42:02.382Z,24.62
2017-09-04T09:43:11.368Z,24.53
2017-09-04T09:44:20.352Z,24.53
2017-09-04T09:45:29.345Z,24.57
2017-09-04T09:46:38.333Z,24.52
2017-09-04T09:47:47.614Z,24.67
2017-09-04T09:48:56.899Z,24.65
2017-09-04T09:50:06.502Z,24.64
2017-09-04T09:51:15.171Z,24.64
2017-09-04T09:52:24.461Z,24.64
2017-09-04T09:53:33.753Z,24.77
2017-09-04T09:54:43.064Z,24.67
2017-09-04T09:55:52.358Z,24.69
2017-09-04T09:57:01.339Z,24.77
2017-09-04T09:58:09.996Z,24.71
2017-09-04T09:59:18.964Z,24.83
2017-09-04T10:00:27.630Z,24.77
2017-09-04T10:01:36.633Z,24.84
2017-09-04T10:02:45.301Z,24.83
2017-09-04T10:03:53.964Z,24.69
2017-09-04T10:05:02.941Z,24.83
2017-09-04T10:06:11.925Z,24.81
2017-09-04T10:07:21.534Z,24.78
2017-09-04T10:08:30.835Z,24.77
2017-09-04T10:09:39.492Z,24.83
2017-09-04T10:10:49.084Z,24.78
2017-09-04T10:11:57.761Z,24.77
2017-09-04T10:13:07.068Z,24.84
2017-09-04T10:14:16.343Z,24.78
2017-09-04T10:15:25.007Z,24.76
2017-09-04T10:16:34.299Z,24.78
2017-09-04T10:17:43.940Z,24.69
2017-09-04T10:18:52.906Z,24.69
2017-09-04T10:20:02.214Z,24.77
2017-09-04T10:21:11.242Z,24.76
2017-09-04T10:22:21.157Z,24.67
2017-09-04T10:23:30.469Z,24.69
2017-09-04T10:24:39.438Z,24.65
2017-09-04T10:25:48.091Z,24.64
2017-09-04T10:26:57.058Z,24.65
2017-09-04T10:28:06.350Z,24.68
2017-09-04T10:29:15.323Z,24.62
2017-09-04T10:30:24.315Z,24.65
2017-09-04T10:31:32.977Z,24.62
2017-09-04T10:32:41.948Z,24.64
2017-09-04T10:33:50.917Z,24.71
2017-09-04T10:35:00.276Z,24.71
2017-09-04T10:36:09.255Z,24.68
2017-09-04T10:37:17.913Z,24.71
2017-09-04T10:38:27.202Z,24.69
2017-09-04T10:39:36.183Z,24.65
2017-09-04T10:40:45.786Z,24.76
2017-09-04T10:41:55.418Z,24.76
2017-09-04T10:43:05.032Z,24.68
2017-09-04T10:44:14.016Z,24.71
2017-09-04T10:45:22.984Z,24.71
2017-09-04T10:46:31.961Z,24.71
2017-09-04T10:47:40.610Z,24.76
2017-09-04T10:48:49.887Z,24.69
2017-09-04T10:49:59.178Z,24.77
2017-09-04T10:51:08.152Z,24.68
2017-09-04T10:52:17.435Z,24.78
2017-09-04T10:53:26.399Z,24.78
2017-09-04T10:54:35.694Z,24.8
2017-09-04T10:55:44.352Z,24.81
2017-09-04T10:56:53.024Z,24.77
2017-09-04T10:58:02.618Z,24.8
2017-09-04T10:59:11.916Z,24.78
2017-09-04T11:00:21.516Z,24.78
2017-09-04T11:01:31.115Z,24.78
2017-09-04T11:02:40.084Z,24.73
2017-09-04T11:03:48.764Z,24.77
2017-09-04T11:04:57.439Z,24.77
2017-09-04T11:06:06.741Z,24.8
2017-09-04T11:07:15.726Z,24.76
2017-09-04T11:08:25.040Z,24.77
2017-09-04T11:09:34.002Z,24.77
2017-09-04T11:10:42.677Z,24.77
2017-09-04T11:11:51.679Z,24.84
2017-09-04T11:13:00.345Z,24.83
2017-09-04T11:14:09.005Z,24.84
2017-09-04T11:15:18.938Z,24.83
2017-09-04T11:16:27.905Z,24.77
2017-09-04T11:17:37.518Z,24.77
2017-09-04T11:18:46.485Z,24.78
2017-09-04T11:19:55.471Z,24.83
2017-09-04T11:21:04.440Z,24.8
2017-09-04T11:22:14.083Z,24.85
2017-09-04T11:23:23.045Z,24.83
2017-09-04T11:24:32.973Z,24.83
2017-09-04T11:25:42.591Z,24.8
2017-09-04T11:26:51.249Z,24.83
2017-09-04T11:27:59.907Z,24.8
2017-09-04T11:29:09.217Z,24.8
2017-09-04T11:30:18.512Z,24.8
2017-09-04T11:31:28.112Z,24.83
2017-09-04T11:32:37.082Z,24.8
2017-09-04T11:33:46.052Z,24.81
2017-09-04T11:34:55.676Z,24.78
2017-09-04T11:36:04.653Z,24.81
2017-09-04T11:37:13.930Z,24.8
2017-09-04T11:38:22.581Z,24.88
2017-09-04T11:39:31.867Z,24.85
2017-09-04T11:40:40.519Z,24.81
2017-09-04T11:41:49.189Z,24.9
2017-09-04T11:42:58.158Z,24.8
2017-09-04T11:44:08.061Z,24.8
2017-09-04T11:45:17.026Z,24.8
2017-09-04T11:46:25.998Z,24.8
2017-09-04T11:47:35.288Z,24.84
2017-09-04T11:48:44.328Z,24.85
2017-09-04T11:49:53.330Z,24.87
2017-09-04T11:51:02.969Z,24.84
2017-09-04T11:52:11.622Z,24.84
2017-09-04T11:53:20.628Z,24.81
2017-09-04T11:54:29.293Z,24.81
2017-09-04T11:55:38.279Z,24.84
2017-09-04T11:56:47.253Z,24.77
2017-09-04T11:57:56.235Z,24.8
2017-09-04T11:59:06.151Z,24.73
2017-09-04T12:00:15.145Z,24.78
2017-09-04T12:01:24.127Z,24.83
2017-09-04T12:02:33.411Z,24.73
2017-09-04T12:03:42.389Z,24.78
2017-09-04T12:04:51.366Z,24.78
2017-09-04T12:06:00.984Z,24.77
2017-09-04T12:07:10.278Z,24.83
2017-09-04T12:08:19.255Z,24.77
2017-09-04T12:09:27.929Z,24.78
2017-09-04T12:10:37.528Z,24.84
2017-09-04T12:11:46.514Z,24.8
2017-09-04T12:12:55.799Z,24.77
2017-09-04T12:14:04.841Z,24.8
2017-09-04T12:15:13.813Z,24.76
2017-09-04T12:16:23.122Z,24.81
2017-09-04T12:17:32.091Z,24.76
2017-09-04T12:18:41.059Z,24.8
2017-09-04T12:19:50.036Z,24.83
2017-09-04T12:20:59.315Z,24.83
2017-09-04T12:22:09.587Z,24.77
2017-09-04T12:23:18.237Z,24.76
2017-09-04T12:24:27.532Z,24.84
2017-09-04T12:25:36.200Z,24.81
2017-09-04T12:26:45.177Z,24.81
2017-09-04T12:27:54.147Z,24.84
2017-09-04T12:29:02.798Z,24.83
2017-09-04T12:30:11.767Z,24.83
2017-09-04T12:31:21.051Z,24.76
2017-09-04T12:32:30.106Z,24.76
2017-09-04T12:33:38.746Z,24.71
2017-09-04T12:34:48.033Z,24.61
2017-09-04T12:35:57.017Z,24.6
2017-09-04T12:37:05.976Z,24.67
2017-09-04T12:38:14.628Z,24.62
2017-09-04T12:39:23.899Z,24.67
2017-09-04T12:40:32.870Z,24.67
2017-09-04T12:41:41.540Z,24.57
2017-09-04T12:42:50.504Z,24.65
2017-09-04T12:44:00.135Z,24.67
2017-09-04T12:45:09.521Z,24.68
2017-09-04T12:46:19.146Z,24.67
2017-09-04T12:47:28.434Z,24.61
2017-09-04T12:48:37.721Z,24.58
2017-09-04T12:49:46.375Z,24.57
2017-09-04T12:50:55.341Z,24.57
2017-09-04T12:52:04.341Z,24.64
2017-09-04T12:53:13.309Z,24.57
2017-09-04T12:54:22.918Z,24.53
2017-09-04T12:55:31.885Z,24.57
2017-09-04T12:56:41.476Z,24.52
2017-09-04T12:57:50.426Z,24.58
2017-09-04T12:59:00.026Z,24.45
2017-09-04T13:00:08.989Z,24.52
2017-09-04T13:01:17.955Z,24.47
2017-09-04T13:02:26.605Z,24.5
2017-09-04T13:03:35.573Z,24.5
2017-09-04T13:04:44.863Z,24.58
2017-09-04T13:05:53.517Z,24.47
2017-09-04T13:07:02.483Z,24.47
2017-09-04T13:08:11.150Z,24.5
2017-09-04T13:09:19.801Z,24.55
2017-09-04T13:10:29.091Z,24.55
2017-09-04T13:11:38.366Z,24.53
2017-09-04T13:12:47.013Z,24.5
2017-09-04T13:13:55.976Z,24.6
2017-09-04T13:15:04.945Z,24.57
2017-09-04T13:16:14.229Z,24.57
2017-09-04T13:17:23.207Z,24.58
2017-09-04T13:18:31.857Z,24.57
2017-09-04T13:19:40.834Z,24.6
2017-09-04T13:20:50.116Z,24.58
2017-09-04T13:22:00.471Z,24.58
2017-09-04T13:23:09.534Z,24.58
2017-09-04T13:24:18.202Z,24.58
2017-09-04T13:25:27.225Z,24.61
2017-09-04T13:26:36.505Z,24.58
2017-09-04T13:27:45.462Z,24.58
2017-09-04T13:28:54.423Z,24.57
2017-09-04T13:30:03.387Z,24.5
2017-09-04T13:31:12.361Z,24.55
2017-09-04T13:32:21.343Z,24.52
2017-09-04T13:33:30.331Z,24.55
2017-09-04T13:34:39.302Z,24.46
2017-09-04T13:35:47.965Z,24.47
2017-09-04T13:36:57.261Z,24.49
2017-09-04T13:38:05.910Z,24.5
2017-09-04T13:39:14.580Z,24.49
2017-09-04T13:40:23.882Z,24.42
2017-09-04T13:41:32.836Z,24.46
2017-09-04T13:42:41.825Z,24.45
2017-09-04T13:43:51.116Z,24.45
2017-09-04T13:44:59.822Z,24.46
2017-09-04T13:46:09.660Z,24.49
2017-09-04T13:47:18.627Z,24.47
2017-09-04T13:48:27.281Z,24.52
2017-09-04T13:49:36.260Z,24.55
2017-09-04T13:50:45.250Z,24.45
2017-09-04T13:51:55.733Z,24.57
2017-09-04T13:53:06.388Z,24.49
2017-09-04T13:54:16.251Z,24.47
2017-09-04T13:55:26.020Z,24.5
2017-09-04T13:56:35.041Z,24.42
2017-09-04T13:57:44.020Z,24.49
2017-09-04T13:58:53.045Z,24.46
2017-09-04T14:00:02.010Z,24.49
2017-09-04T14:01:11.290Z,24.4
2017-09-04T14:02:19.938Z,24.45
2017-09-04T14:03:28.911Z,24.39
2017-09-04T14:04:37.896Z,24.31
2017-09-04T14:05:46.865Z,24.49
2017-09-04T14:06:55.883Z,24.47
2017-09-04T14:08:05.160Z,24.42
2017-09-04T14:09:13.809Z,24.43
2017-09-04T14:10:23.097Z,24.49
2017-09-04T14:11:32.691Z,24.43
2017-09-04T14:12:41.957Z,24.47
2017-09-04T14:13:50.607Z,24.49
2017-09-04T14:14:59.900Z,24.47
2017-09-04T14:16:09.170Z,24.47
2017-09-04T14:17:18.141Z,24.49
2017-09-04T14:18:27.408Z,24.49
2017-09-04T14:19:36.365Z,24.53
2017-09-04T14:20:45.962Z,24.52
2017-09-04T14:21:54.928Z,24.42
2017-09-04T14:23:03.583Z,24.55
2017-09-04T14:24:12.539Z,24.45
2017-09-04T14:25:21.839Z,24.45
2017-09-04T14:26:30.807Z,24.46
2017-09-04T14:27:39.769Z,24.37
2017-09-04T14:28:49.064Z,24.46
2017-09-04T14:29:58.023Z,24.43
2017-09-04T14:31:06.997Z,24.34
2017-09-04T14:32:16.284Z,24.49
2017-09-04T14:33:25.259Z,24.5
2017-09-04T14:34:34.858Z,24.31
2017-09-04T14:35:43.822Z,24.42
2017-09-04T14:36:53.118Z,24.43
2017-09-04T14:38:02.397Z,24.37
2017-09-04T14:39:12.007Z,24.45
2017-09-04T14:40:21.649Z,24.4
2017-09-04T14:41:31.606Z,24.31
2017-09-04T14:42:40.869Z,24.43
2017-09-04T14:43:49.542Z,24.34
2017-09-04T14:44:58.823Z,24.42
2017-09-04T14:46:07.789Z,24.45
2017-09-04T14:47:17.119Z,24.35
2017-09-04T14:48:26.091Z,24.46
2017-09-04T14:49:35.698Z,24.37
2017-09-04T14:50:45.296Z,24.43
2017-09-04T14:51:54.574Z,24.37
2017-09-04T14:53:03.552Z,24.42
2017-09-04T14:54:12.524Z,24.43
2017-09-04T14:55:21.804Z,24.46
2017-09-04T14:56:30.456Z,24.43
2017-09-04T14:57:39.110Z,24.32
2017-09-04T14:58:48.089Z,24.4
2017-09-04T14:59:56.752Z,24.45
2017-09-04T15:01:06.039Z,24.42
2017-09-04T15:02:15.342Z,24.43
2017-09-04T15:03:24.621Z,24.37
2017-09-04T15:04:33.657Z,24.43
2017-09-04T15:05:42.331Z,24.43
2017-09-04T15:06:51.929Z,24.37
2017-09-04T15:08:01.204Z,24.31
2017-09-04T15:09:10.203Z,24.43
2017-09-04T15:10:19.470Z,24.31
2017-09-04T15:11:28.143Z,24.34
2017-09-04T15:12:36.807Z,24.32
2017-09-04T15:13:45.768Z,24.31
2017-09-04T15:14:55.367Z,24.3
2017-09-04T15:16:04.343Z,24.3
2017-09-04T15:17:13.647Z,24.27
2017-09-04T15:18:22.623Z,24.28
2017-09-04T15:19:31.295Z,24.28